sensor_id;sensor_type;location;lat;lon;timestamp;P1;durP1;ratioP1;P2;durP2;ratioP2
15946;SDS011;8072;52.554;7.966;2023-03-30T00:00:57;22.33;;;13.73;;
15946;SDS011;8072;52.554;7.966;2023-03-30T00:03:24;20.13;;;12.33;;
15946;SDS011;8072;52.554;7.966;2023-03-30T00:05:51;18.70;;;12.63;;
15946;SDS011;8072;52.554;7.966;2023-03-30T00:08:24;18.60;;;11.50;;
15946;SDS011;8072;52.554;7.966;2023-03-30T00:11:00;16.70;;;11.93;;
15946;SDS011;8072;52.554;7.966;2023-03-30T00:13:29;16.90;;;11.77;;
15946;SDS011;8072;52.554;7.966;2023-03-30T00:15:58;17.63;;;12.20;;
15946;SDS011;8072;52.554;7.966;2023-03-30T00:18:25;17.80;;;11.97;;
15946;SDS011;8072;52.554;7.966;2023-03-30T00:20:51;17.63;;;10.80;;
15946;SDS011;8072;52.554;7.966;2023-03-30T00:23:17;15.60;;;10.73;;
15946;SDS011;8072;52.554;7.966;2023-03-30T00:25:44;17.37;;;10.60;;
15946;SDS011;8072;52.554;7.966;2023-03-30T00:28:10;17.60;;;10.73;;
15946;SDS011;8072;52.554;7.966;2023-03-30T00:30:36;16.60;;;10.53;;
15946;SDS011;8072;52.554;7.966;2023-03-30T00:33:02;14.27;;;10.10;;
15946;SDS011;8072;52.554;7.966;2023-03-30T00:35:28;14.97;;;10.13;;
15946;SDS011;8072;52.554;7.966;2023-03-30T00:37:58;15.67;;;10.03;;
15946;SDS011;8072;52.554;7.966;2023-03-30T00:40:28;14.07;;;9.00;;
15946;SDS011;8072;52.554;7.966;2023-03-30T00:42:57;14.57;;;8.90;;
15946;SDS011;8072;52.554;7.966;2023-03-30T00:45:36;11.00;;;8.27;;
15946;SDS011;8072;52.554;7.966;2023-03-30T00:48:07;12.43;;;8.47;;
15946;SDS011;8072;52.554;7.966;2023-03-30T00:50:49;12.10;;;8.60;;
15946;SDS011;8072;52.554;7.966;2023-03-30T00:53:44;12.77;;;8.10;;
15946;SDS011;8072;52.554;7.966;2023-03-30T00:56:12;10.70;;;7.57;;
15946;SDS011;8072;52.554;7.966;2023-03-30T00:58:40;12.87;;;7.27;;
15946;SDS011;8072;52.554;7.966;2023-03-30T01:01:08;13.90;;;8.03;;
15946;SDS011;8072;52.554;7.966;2023-03-30T01:03:44;11.97;;;7.13;;
15946;SDS011;8072;52.554;7.966;2023-03-30T01:06:12;9.67;;;7.33;;
15946;SDS011;8072;52.554;7.966;2023-03-30T01:08:42;10.97;;;7.37;;
15946;SDS011;8072;52.554;7.966;2023-03-30T01:11:09;12.43;;;7.20;;
15946;SDS011;8072;52.554;7.966;2023-03-30T01:13:36;11.63;;;6.50;;
15946;SDS011;8072;52.554;7.966;2023-03-30T01:39:06;7.23;;;5.07;;
15946;SDS011;8072;52.554;7.966;2023-03-30T01:44:14;9.77;;;4.53;;
15946;SDS011;8072;52.554;7.966;2023-03-30T01:46:58;7.47;;;4.50;;
15946;SDS011;8072;52.554;7.966;2023-03-30T01:52:32;6.33;;;4.10;;
15946;SDS011;8072;52.554;7.966;2023-03-30T01:55:18;12.03;;;3.93;;
15946;SDS011;8072;52.554;7.966;2023-03-30T01:57:52;5.50;;;3.53;;
15946;SDS011;8072;52.554;7.966;2023-03-30T02:00:30;7.77;;;3.50;;
15946;SDS011;8072;52.554;7.966;2023-03-30T02:03:04;4.90;;;3.17;;
15946;SDS011;8072;52.554;7.966;2023-03-30T02:05:34;4.60;;;3.30;;
15946;SDS011;8072;52.554;7.966;2023-03-30T02:08:02;6.67;;;3.47;;
15946;SDS011;8072;52.554;7.966;2023-03-30T02:10:32;6.17;;;3.37;;
15946;SDS011;8072;52.554;7.966;2023-03-30T02:12:59;6.83;;;3.23;;
15946;SDS011;8072;52.554;7.966;2023-03-30T02:15:37;7.63;;;3.77;;
15946;SDS011;8072;52.554;7.966;2023-03-30T02:18:06;8.37;;;3.80;;
15946;SDS011;8072;52.554;7.966;2023-03-30T02:20:32;6.67;;;3.30;;
15946;SDS011;8072;52.554;7.966;2023-03-30T02:22:59;8.67;;;3.17;;
15946;SDS011;8072;52.554;7.966;2023-03-30T02:25:26;6.23;;;3.20;;
15946;SDS011;8072;52.554;7.966;2023-03-30T02:27:53;5.83;;;3.00;;
15946;SDS011;8072;52.554;7.966;2023-03-30T02:30:19;9.33;;;3.27;;
15946;SDS011;8072;52.554;7.966;2023-03-30T02:32:46;8.83;;;3.20;;
15946;SDS011;8072;52.554;7.966;2023-03-30T02:38:14;5.77;;;3.40;;
15946;SDS011;8072;52.554;7.966;2023-03-30T02:46:18;4.30;;;3.13;;
15946;SDS011;8072;52.554;7.966;2023-03-30T02:51:44;7.73;;;3.40;;
15946;SDS011;8072;52.554;7.966;2023-03-30T02:57:06;9.87;;;4.07;;
15946;SDS011;8072;52.554;7.966;2023-03-30T02:59:44;4.83;;;3.10;;
15946;SDS011;8072;52.554;7.966;2023-03-30T03:02:21;7.87;;;3.23;;
15946;SDS011;8072;52.554;7.966;2023-03-30T03:04:52;6.07;;;3.23;;
15946;SDS011;8072;52.554;7.966;2023-03-30T03:07:19;7.73;;;3.20;;
15946;SDS011;8072;52.554;7.966;2023-03-30T03:09:46;7.60;;;3.00;;
15946;SDS011;8072;52.554;7.966;2023-03-30T03:12:12;5.50;;;2.97;;
15946;SDS011;8072;52.554;7.966;2023-03-30T03:14:38;5.27;;;2.63;;
15946;SDS011;8072;52.554;7.966;2023-03-30T03:17:04;5.43;;;2.97;;
15946;SDS011;8072;52.554;7.966;2023-03-30T03:19:31;7.23;;;3.00;;
15946;SDS011;8072;52.554;7.966;2023-03-30T03:21:57;5.13;;;2.67;;
15946;SDS011;8072;52.554;7.966;2023-03-30T03:24:23;7.53;;;3.23;;
15946;SDS011;8072;52.554;7.966;2023-03-30T03:26:48;6.27;;;3.00;;
15946;SDS011;8072;52.554;7.966;2023-03-30T03:29:14;6.87;;;2.70;;
15946;SDS011;8072;52.554;7.966;2023-03-30T03:31:40;4.40;;;2.90;;
15946;SDS011;8072;52.554;7.966;2023-03-30T03:34:07;7.43;;;2.90;;
15946;SDS011;8072;52.554;7.966;2023-03-30T03:36:33;4.27;;;2.87;;
15946;SDS011;8072;52.554;7.966;2023-03-30T03:38:58;5.93;;;2.80;;
15946;SDS011;8072;52.554;7.966;2023-03-30T03:41:24;6.63;;;2.90;;
15946;SDS011;8072;52.554;7.966;2023-03-30T03:43:54;5.00;;;2.73;;
15946;SDS011;8072;52.554;7.966;2023-03-30T03:46:19;4.80;;;2.80;;
15946;SDS011;8072;52.554;7.966;2023-03-30T03:48:45;3.63;;;2.60;;
15946;SDS011;8072;52.554;7.966;2023-03-30T03:51:11;5.73;;;3.37;;
15946;SDS011;8072;52.554;7.966;2023-03-30T03:53:37;6.90;;;2.90;;
15946;SDS011;8072;52.554;7.966;2023-03-30T03:56:03;6.37;;;3.07;;
15946;SDS011;8072;52.554;7.966;2023-03-30T03:58:29;6.03;;;3.10;;
15946;SDS011;8072;52.554;7.966;2023-03-30T04:00:59;7.23;;;3.10;;
15946;SDS011;8072;52.554;7.966;2023-03-30T04:03:25;5.83;;;3.17;;
15946;SDS011;8072;52.554;7.966;2023-03-30T04:05:51;6.37;;;2.90;;
15946;SDS011;8072;52.554;7.966;2023-03-30T04:08:17;4.60;;;3.00;;
15946;SDS011;8072;52.554;7.966;2023-03-30T04:10:43;5.53;;;2.93;;
15946;SDS011;8072;52.554;7.966;2023-03-30T04:13:08;7.93;;;2.90;;
15946;SDS011;8072;52.554;7.966;2023-03-30T04:15:34;5.77;;;3.13;;
15946;SDS011;8072;52.554;7.966;2023-03-30T04:18:00;5.60;;;2.83;;
15946;SDS011;8072;52.554;7.966;2023-03-30T04:20:27;5.37;;;2.77;;
15946;SDS011;8072;52.554;7.966;2023-03-30T04:22:53;6.20;;;2.70;;
15946;SDS011;8072;52.554;7.966;2023-03-30T04:25:20;5.30;;;2.90;;
15946;SDS011;8072;52.554;7.966;2023-03-30T04:27:52;7.03;;;3.20;;
15946;SDS011;8072;52.554;7.966;2023-03-30T04:30:20;7.97;;;3.27;;
15946;SDS011;8072;52.554;7.966;2023-03-30T04:32:47;6.83;;;2.63;;
15946;SDS011;8072;52.554;7.966;2023-03-30T04:35:26;6.57;;;3.00;;
15946;SDS011;8072;52.554;7.966;2023-03-30T04:37:53;7.27;;;2.57;;
15946;SDS011;8072;52.554;7.966;2023-03-30T04:40:22;7.57;;;2.90;;
15946;SDS011;8072;52.554;7.966;2023-03-30T04:42:48;8.23;;;3.53;;
15946;SDS011;8072;52.554;7.966;2023-03-30T04:45:14;4.73;;;2.73;;
15946;SDS011;8072;52.554;7.966;2023-03-30T04:47:44;5.53;;;2.73;;
15946;SDS011;8072;52.554;7.966;2023-03-30T04:50:11;6.97;;;2.73;;
15946;SDS011;8072;52.554;7.966;2023-03-30T04:52:37;5.27;;;2.50;;
15946;SDS011;8072;52.554;7.966;2023-03-30T04:55:03;4.53;;;2.50;;
15946;SDS011;8072;52.554;7.966;2023-03-30T04:57:29;7.13;;;3.00;;
15946;SDS011;8072;52.554;7.966;2023-03-30T04:59:55;7.20;;;2.70;;
15946;SDS011;8072;52.554;7.966;2023-03-30T05:02:21;7.00;;;2.70;;
15946;SDS011;8072;52.554;7.966;2023-03-30T05:04:46;5.77;;;2.30;;
15946;SDS011;8072;52.554;7.966;2023-03-30T05:07:12;6.27;;;2.83;;
15946;SDS011;8072;52.554;7.966;2023-03-30T05:09:38;5.40;;;2.10;;
15946;SDS011;8072;52.554;7.966;2023-03-30T05:12:05;6.07;;;2.60;;
15946;SDS011;8072;52.554;7.966;2023-03-30T05:14:31;6.17;;;2.40;;
15946;SDS011;8072;52.554;7.966;2023-03-30T05:16:57;5.47;;;2.53;;
15946;SDS011;8072;52.554;7.966;2023-03-30T05:19:22;4.23;;;2.47;;
15946;SDS011;8072;52.554;7.966;2023-03-30T05:21:48;5.30;;;2.50;;
15946;SDS011;8072;52.554;7.966;2023-03-30T05:24:14;5.20;;;2.70;;
15946;SDS011;8072;52.554;7.966;2023-03-30T05:26:40;5.90;;;2.57;;
15946;SDS011;8072;52.554;7.966;2023-03-30T05:29:06;5.87;;;2.87;;
15946;SDS011;8072;52.554;7.966;2023-03-30T05:31:32;7.37;;;2.53;;
15946;SDS011;8072;52.554;7.966;2023-03-30T05:33:58;5.60;;;2.77;;
15946;SDS011;8072;52.554;7.966;2023-03-30T05:36:24;4.93;;;2.33;;
15946;SDS011;8072;52.554;7.966;2023-03-30T05:38:49;5.40;;;2.47;;
15946;SDS011;8072;52.554;7.966;2023-03-30T05:41:16;4.47;;;2.20;;
15946;SDS011;8072;52.554;7.966;2023-03-30T05:43:42;5.67;;;3.00;;
15946;SDS011;8072;52.554;7.966;2023-03-30T05:46:08;5.17;;;2.70;;
15946;SDS011;8072;52.554;7.966;2023-03-30T05:48:33;6.90;;;2.40;;
15946;SDS011;8072;52.554;7.966;2023-03-30T05:50:59;4.20;;;2.60;;
15946;SDS011;8072;52.554;7.966;2023-03-30T05:53:26;7.90;;;3.00;;
15946;SDS011;8072;52.554;7.966;2023-03-30T05:55:51;6.77;;;2.50;;
15946;SDS011;8072;52.554;7.966;2023-03-30T05:58:17;6.20;;;2.60;;
15946;SDS011;8072;52.554;7.966;2023-03-30T06:00:43;4.57;;;2.30;;
15946;SDS011;8072;52.554;7.966;2023-03-30T06:03:12;3.63;;;2.37;;
15946;SDS011;8072;52.554;7.966;2023-03-30T06:05:38;6.07;;;2.10;;
15946;SDS011;8072;52.554;7.966;2023-03-30T06:08:05;7.20;;;2.60;;
15946;SDS011;8072;52.554;7.966;2023-03-30T06:10:34;5.40;;;2.50;;
15946;SDS011;8072;52.554;7.966;2023-03-30T06:13:00;6.10;;;2.67;;
15946;SDS011;8072;52.554;7.966;2023-03-30T06:15:26;6.00;;;2.03;;
15946;SDS011;8072;52.554;7.966;2023-03-30T06:17:52;5.70;;;2.30;;
15946;SDS011;8072;52.554;7.966;2023-03-30T06:20:19;4.17;;;1.90;;
15946;SDS011;8072;52.554;7.966;2023-03-30T06:22:46;4.07;;;2.00;;
15946;SDS011;8072;52.554;7.966;2023-03-30T06:25:12;5.70;;;2.20;;
15946;SDS011;8072;52.554;7.966;2023-03-30T06:27:40;8.30;;;2.27;;
15946;SDS011;8072;52.554;7.966;2023-03-30T06:30:06;3.90;;;2.10;;
15946;SDS011;8072;52.554;7.966;2023-03-30T06:32:35;4.90;;;2.23;;
15946;SDS011;8072;52.554;7.966;2023-03-30T06:35:01;3.47;;;1.97;;
15946;SDS011;8072;52.554;7.966;2023-03-30T06:37:29;4.47;;;2.30;;
15946;SDS011;8072;52.554;7.966;2023-03-30T06:39:56;3.27;;;1.80;;
15946;SDS011;8072;52.554;7.966;2023-03-30T06:42:22;5.13;;;2.20;;
15946;SDS011;8072;52.554;7.966;2023-03-30T06:44:50;8.43;;;2.50;;
15946;SDS011;8072;52.554;7.966;2023-03-30T06:47:16;4.87;;;1.97;;
15946;SDS011;8072;52.554;7.966;2023-03-30T06:49:42;4.87;;;2.10;;
15946;SDS011;8072;52.554;7.966;2023-03-30T06:52:09;4.37;;;1.80;;
15946;SDS011;8072;52.554;7.966;2023-03-30T06:54:35;4.07;;;1.97;;
15946;SDS011;8072;52.554;7.966;2023-03-30T06:57:01;6.53;;;2.20;;
15946;SDS011;8072;52.554;7.966;2023-03-30T06:59:26;4.73;;;2.37;;
15946;SDS011;8072;52.554;7.966;2023-03-30T07:01:52;2.60;;;2.20;;
15946;SDS011;8072;52.554;7.966;2023-03-30T07:04:18;5.93;;;2.63;;
15946;SDS011;8072;52.554;7.966;2023-03-30T07:06:44;4.53;;;2.57;;
15946;SDS011;8072;52.554;7.966;2023-03-30T07:09:10;6.87;;;2.53;;
15946;SDS011;8072;52.554;7.966;2023-03-30T07:11:37;5.97;;;2.00;;
15946;SDS011;8072;52.554;7.966;2023-03-30T07:14:02;5.20;;;2.43;;
15946;SDS011;8072;52.554;7.966;2023-03-30T07:16:29;4.23;;;2.37;;
15946;SDS011;8072;52.554;7.966;2023-03-30T07:18:55;3.60;;;2.33;;
15946;SDS011;8072;52.554;7.966;2023-03-30T07:21:20;6.07;;;2.43;;
15946;SDS011;8072;52.554;7.966;2023-03-30T07:23:46;7.53;;;2.50;;
15946;SDS011;8072;52.554;7.966;2023-03-30T07:26:12;4.93;;;3.07;;
15946;SDS011;8072;52.554;7.966;2023-03-30T07:28:38;4.87;;;2.33;;
15946;SDS011;8072;52.554;7.966;2023-03-30T07:31:08;5.17;;;2.30;;
15946;SDS011;8072;52.554;7.966;2023-03-30T07:33:37;5.73;;;2.10;;
15946;SDS011;8072;52.554;7.966;2023-03-30T07:36:04;3.93;;;2.30;;
15946;SDS011;8072;52.554;7.966;2023-03-30T07:38:30;7.03;;;2.43;;
15946;SDS011;8072;52.554;7.966;2023-03-30T07:40:56;4.90;;;2.37;;
15946;SDS011;8072;52.554;7.966;2023-03-30T07:43:22;3.43;;;2.03;;
15946;SDS011;8072;52.554;7.966;2023-03-30T07:45:48;6.10;;;2.20;;
15946;SDS011;8072;52.554;7.966;2023-03-30T07:48:14;3.77;;;2.10;;
15946;SDS011;8072;52.554;7.966;2023-03-30T07:50:40;4.50;;;2.50;;
15946;SDS011;8072;52.554;7.966;2023-03-30T07:53:05;5.30;;;1.90;;
15946;SDS011;8072;52.554;7.966;2023-03-30T07:55:31;8.60;;;2.43;;
15946;SDS011;8072;52.554;7.966;2023-03-30T07:57:57;5.07;;;1.67;;
15946;SDS011;8072;52.554;7.966;2023-03-30T08:00:23;4.43;;;1.90;;
15946;SDS011;8072;52.554;7.966;2023-03-30T08:02:49;2.60;;;1.77;;
15946;SDS011;8072;52.554;7.966;2023-03-30T08:05:15;5.20;;;1.90;;
15946;SDS011;8072;52.554;7.966;2023-03-30T08:07:42;6.90;;;2.60;;
15946;SDS011;8072;52.554;7.966;2023-03-30T08:10:09;4.20;;;1.80;;
15946;SDS011;8072;52.554;7.966;2023-03-30T08:12:35;5.63;;;1.97;;
15946;SDS011;8072;52.554;7.966;2023-03-30T08:15:02;8.00;;;2.00;;
15946;SDS011;8072;52.554;7.966;2023-03-30T08:17:28;6.73;;;2.13;;
15946;SDS011;8072;52.554;7.966;2023-03-30T08:19:54;7.60;;;2.10;;
15946;SDS011;8072;52.554;7.966;2023-03-30T08:22:20;5.77;;;1.93;;
15946;SDS011;8072;52.554;7.966;2023-03-30T08:24:47;6.67;;;2.23;;
15946;SDS011;8072;52.554;7.966;2023-03-30T08:27:12;6.67;;;2.60;;
15946;SDS011;8072;52.554;7.966;2023-03-30T08:29:38;11.37;;;2.03;;
15946;SDS011;8072;52.554;7.966;2023-03-30T08:32:04;7.33;;;2.30;;
15946;SDS011;8072;52.554;7.966;2023-03-30T08:34:31;5.57;;;2.20;;
15946;SDS011;8072;52.554;7.966;2023-03-30T08:36:57;9.70;;;2.10;;
15946;SDS011;8072;52.554;7.966;2023-03-30T08:39:23;6.57;;;2.60;;
15946;SDS011;8072;52.554;7.966;2023-03-30T08:44:58;6.03;;;3.10;;
15946;SDS011;8072;52.554;7.966;2023-03-30T08:47:33;9.83;;;2.80;;
15946;SDS011;8072;52.554;7.966;2023-03-30T08:50:04;8.47;;;3.00;;
15946;SDS011;8072;52.554;7.966;2023-03-30T08:52:41;7.13;;;2.70;;
15946;SDS011;8072;52.554;7.966;2023-03-30T08:55:29;6.57;;;2.27;;
15946;SDS011;8072;52.554;7.966;2023-03-30T09:00:59;11.20;;;2.70;;
15946;SDS011;8072;52.554;7.966;2023-03-30T09:03:31;10.83;;;2.93;;
15946;SDS011;8072;52.554;7.966;2023-03-30T09:06:25;8.17;;;2.20;;
15946;SDS011;8072;52.554;7.966;2023-03-30T09:08:51;7.63;;;2.67;;
15946;SDS011;8072;52.554;7.966;2023-03-30T09:11:23;6.13;;;2.23;;
15946;SDS011;8072;52.554;7.966;2023-03-30T09:13:57;5.90;;;2.40;;
15946;SDS011;8072;52.554;7.966;2023-03-30T09:16:32;7.77;;;2.50;;
15946;SDS011;8072;52.554;7.966;2023-03-30T09:19:03;7.67;;;2.30;;
15946;SDS011;8072;52.554;7.966;2023-03-30T09:21:32;7.00;;;2.50;;
15946;SDS011;8072;52.554;7.966;2023-03-30T09:23:59;7.93;;;2.60;;
15946;SDS011;8072;52.554;7.966;2023-03-30T09:29:17;6.23;;;2.27;;
15946;SDS011;8072;52.554;7.966;2023-03-30T09:31:51;9.97;;;2.60;;
15946;SDS011;8072;52.554;7.966;2023-03-30T09:35:31;12.93;;;2.73;;
15946;SDS011;8072;52.554;7.966;2023-03-30T09:37:36;10.30;;;2.37;;
15946;SDS011;8072;52.554;7.966;2023-03-30T09:42:57;8.30;;;2.87;;
15946;SDS011;8072;52.554;7.966;2023-03-30T09:45:32;6.27;;;2.17;;
15946;SDS011;8072;52.554;7.966;2023-03-30T09:48:03;5.77;;;2.20;;
15946;SDS011;8072;52.554;7.966;2023-03-30T09:50:35;7.70;;;2.50;;
15946;SDS011;8072;52.554;7.966;2023-03-30T09:56:09;8.33;;;2.20;;
15946;SDS011;8072;52.554;7.966;2023-03-30T09:58:41;7.00;;;2.33;;
15946;SDS011;8072;52.554;7.966;2023-03-30T10:01:17;13.23;;;3.70;;
15946;SDS011;8072;52.554;7.966;2023-03-30T10:03:45;8.60;;;2.27;;
15946;SDS011;8072;52.554;7.966;2023-03-30T10:06:29;10.10;;;2.33;;
15946;SDS011;8072;52.554;7.966;2023-03-30T10:08:59;5.67;;;2.10;;
15946;SDS011;8072;52.554;7.966;2023-03-30T10:13:58;6.80;;;2.17;;
15946;SDS011;8072;52.554;7.966;2023-03-30T10:16:26;7.87;;;1.90;;
15946;SDS011;8072;52.554;7.966;2023-03-30T10:19:03;6.00;;;1.80;;
15946;SDS011;8072;52.554;7.966;2023-03-30T10:21:41;9.40;;;2.20;;
15946;SDS011;8072;52.554;7.966;2023-03-30T10:26:41;8.10;;;2.17;;
15946;SDS011;8072;52.554;7.966;2023-03-30T10:29:15;6.83;;;1.83;;
15946;SDS011;8072;52.554;7.966;2023-03-30T10:31:43;7.90;;;2.53;;
15946;SDS011;8072;52.554;7.966;2023-03-30T10:34:45;9.93;;;3.00;;
15946;SDS011;8072;52.554;7.966;2023-03-30T10:37:09;7.77;;;1.80;;
15946;SDS011;8072;52.554;7.966;2023-03-30T10:39:40;9.37;;;1.90;;
15946;SDS011;8072;52.554;7.966;2023-03-30T10:42:09;7.93;;;2.00;;
15946;SDS011;8072;52.554;7.966;2023-03-30T11:03:15;5.53;;;2.20;;
15946;SDS011;8072;52.554;7.966;2023-03-30T11:05:50;8.20;;;2.77;;
15946;SDS011;8072;52.554;7.966;2023-03-30T11:08:20;8.83;;;2.30;;
15946;SDS011;8072;52.554;7.966;2023-03-30T11:10:52;8.43;;;2.33;;
15946;SDS011;8072;52.554;7.966;2023-03-30T11:16:01;8.13;;;2.30;;
15946;SDS011;8072;52.554;7.966;2023-03-30T11:21:16;8.87;;;2.40;;
15946;SDS011;8072;52.554;7.966;2023-03-30T11:24:14;10.47;;;2.30;;
15946;SDS011;8072;52.554;7.966;2023-03-30T11:27:05;8.50;;;2.10;;
15946;SDS011;8072;52.554;7.966;2023-03-30T11:30:21;6.87;;;2.20;;
15946;SDS011;8072;52.554;7.966;2023-03-30T11:32:29;11.63;;;2.60;;
15946;SDS011;8072;52.554;7.966;2023-03-30T11:35:20;10.63;;;2.67;;
15946;SDS011;8072;52.554;7.966;2023-03-30T11:40:47;9.73;;;2.60;;
15946;SDS011;8072;52.554;7.966;2023-03-30T11:43:18;10.13;;;2.20;;
15946;SDS011;8072;52.554;7.966;2023-03-30T11:46:02;6.83;;;2.47;;
15946;SDS011;8072;52.554;7.966;2023-03-30T11:52:07;11.63;;;2.33;;
15946;SDS011;8072;52.554;7.966;2023-03-30T11:54:22;9.73;;;2.10;;
15946;SDS011;8072;52.554;7.966;2023-03-30T11:56:56;10.97;;;2.30;;
15946;SDS011;8072;52.554;7.966;2023-03-30T12:00:25;12.43;;;2.60;;
15946;SDS011;8072;52.554;7.966;2023-03-30T12:05:16;4.60;;;1.60;;
15946;SDS011;8072;52.554;7.966;2023-03-30T12:07:54;7.47;;;1.70;;
15946;SDS011;8072;52.554;7.966;2023-03-30T12:10:42;8.70;;;2.50;;
15946;SDS011;8072;52.554;7.966;2023-03-30T12:13:15;7.87;;;1.90;;
15946;SDS011;8072;52.554;7.966;2023-03-30T12:15:59;6.20;;;2.20;;
15946;SDS011;8072;52.554;7.966;2023-03-30T12:23:52;11.43;;;1.87;;
15946;SDS011;8072;52.554;7.966;2023-03-30T12:26:31;13.90;;;2.23;;
15946;SDS011;8072;52.554;7.966;2023-03-30T12:32:01;6.67;;;1.73;;
15946;SDS011;8072;52.554;7.966;2023-03-30T12:34:31;9.57;;;2.73;;
15946;SDS011;8072;52.554;7.966;2023-03-30T12:39:29;6.20;;;1.67;;
15946;SDS011;8072;52.554;7.966;2023-03-30T12:47:52;14.37;;;2.40;;
15946;SDS011;8072;52.554;7.966;2023-03-30T12:55:55;7.87;;;2.00;;
15946;SDS011;8072;52.554;7.966;2023-03-30T13:04:55;8.00;;;2.13;;
15946;SDS011;8072;52.554;7.966;2023-03-30T13:07:26;9.03;;;1.90;;
15946;SDS011;8072;52.554;7.966;2023-03-30T13:12:47;11.63;;;2.03;;
15946;SDS011;8072;52.554;7.966;2023-03-30T13:18:22;8.30;;;2.30;;
15946;SDS011;8072;52.554;7.966;2023-03-30T13:25:51;8.27;;;2.27;;
15946;SDS011;8072;52.554;7.966;2023-03-30T13:28:30;11.67;;;2.03;;
15946;SDS011;8072;52.554;7.966;2023-03-30T13:33:46;12.57;;;2.33;;
15946;SDS011;8072;52.554;7.966;2023-03-30T13:36:20;10.13;;;2.23;;
15946;SDS011;8072;52.554;7.966;2023-03-30T13:42:19;15.83;;;2.50;;
15946;SDS011;8072;52.554;7.966;2023-03-30T13:50:44;10.93;;;2.10;;
15946;SDS011;8072;52.554;7.966;2023-03-30T13:53:14;7.80;;;1.70;;
15946;SDS011;8072;52.554;7.966;2023-03-30T13:55:46;8.30;;;1.80;;
15946;SDS011;8072;52.554;7.966;2023-03-30T13:58:15;11.50;;;2.20;;
15946;SDS011;8072;52.554;7.966;2023-03-30T14:00:59;10.77;;;2.13;;
15946;SDS011;8072;52.554;7.966;2023-03-30T14:03:41;12.40;;;2.40;;
15946;SDS011;8072;52.554;7.966;2023-03-30T14:06:19;9.33;;;2.23;;
15946;SDS011;8072;52.554;7.966;2023-03-30T14:08:57;6.73;;;1.93;;
15946;SDS011;8072;52.554;7.966;2023-03-30T14:11:43;6.37;;;1.47;;
15946;SDS011;8072;52.554;7.966;2023-03-30T14:14:44;5.70;;;1.60;;
15946;SDS011;8072;52.554;7.966;2023-03-30T14:17:18;11.93;;;1.70;;
15946;SDS011;8072;52.554;7.966;2023-03-30T14:22:30;6.03;;;1.60;;
15946;SDS011;8072;52.554;7.966;2023-03-30T14:25:05;14.17;;;2.33;;
15946;SDS011;8072;52.554;7.966;2023-03-30T14:27:45;10.37;;;2.00;;
15946;SDS011;8072;52.554;7.966;2023-03-30T14:30:22;7.50;;;2.80;;
15946;SDS011;8072;52.554;7.966;2023-03-30T14:33:11;9.43;;;2.30;;
15946;SDS011;8072;52.554;7.966;2023-03-30T14:35:42;14.47;;;2.60;;
15946;SDS011;8072;52.554;7.966;2023-03-30T14:38:21;11.83;;;2.10;;
15946;SDS011;8072;52.554;7.966;2023-03-30T14:40:50;9.93;;;2.23;;
15946;SDS011;8072;52.554;7.966;2023-03-30T14:43:21;11.70;;;2.40;;
15946;SDS011;8072;52.554;7.966;2023-03-30T14:45:57;11.40;;;2.17;;
15946;SDS011;8072;52.554;7.966;2023-03-30T14:48:31;14.73;;;3.03;;
15946;SDS011;8072;52.554;7.966;2023-03-30T14:51:00;13.40;;;2.27;;
15946;SDS011;8072;52.554;7.966;2023-03-30T14:53:28;12.23;;;2.40;;
15946;SDS011;8072;52.554;7.966;2023-03-30T14:55:56;14.60;;;2.33;;
15946;SDS011;8072;52.554;7.966;2023-03-30T14:58:26;12.07;;;2.23;;
15946;SDS011;8072;52.554;7.966;2023-03-30T15:00:56;12.73;;;2.37;;
15946;SDS011;8072;52.554;7.966;2023-03-30T15:03:25;13.23;;;2.53;;
15946;SDS011;8072;52.554;7.966;2023-03-30T15:05:54;9.57;;;2.10;;
15946;SDS011;8072;52.554;7.966;2023-03-30T15:08:24;10.93;;;2.50;;
15946;SDS011;8072;52.554;7.966;2023-03-30T15:10:54;14.07;;;2.67;;
15946;SDS011;8072;52.554;7.966;2023-03-30T15:13:23;17.30;;;2.53;;
15946;SDS011;8072;52.554;7.966;2023-03-30T15:16:01;8.47;;;1.80;;
15946;SDS011;8072;52.554;7.966;2023-03-30T15:18:30;11.20;;;2.00;;
15946;SDS011;8072;52.554;7.966;2023-03-30T15:20:58;9.77;;;1.90;;
15946;SDS011;8072;52.554;7.966;2023-03-30T15:23:28;10.07;;;1.93;;
15946;SDS011;8072;52.554;7.966;2023-03-30T15:25:59;11.00;;;2.00;;
15946;SDS011;8072;52.554;7.966;2023-03-30T15:28:29;9.70;;;2.20;;
15946;SDS011;8072;52.554;7.966;2023-03-30T15:31:17;12.23;;;2.20;;
15946;SDS011;8072;52.554;7.966;2023-03-30T15:38:48;12.07;;;2.47;;
15946;SDS011;8072;52.554;7.966;2023-03-30T15:41:22;14.90;;;2.67;;
15946;SDS011;8072;52.554;7.966;2023-03-30T15:44:10;11.70;;;2.30;;
15946;SDS011;8072;52.554;7.966;2023-03-30T15:46:40;12.67;;;2.67;;
15946;SDS011;8072;52.554;7.966;2023-03-30T15:49:09;8.93;;;2.37;;
15946;SDS011;8072;52.554;7.966;2023-03-30T15:51:40;13.23;;;2.60;;
15946;SDS011;8072;52.554;7.966;2023-03-30T15:54:42;13.70;;;2.90;;
15946;SDS011;8072;52.554;7.966;2023-03-30T15:59:45;14.67;;;2.33;;
15946;SDS011;8072;52.554;7.966;2023-03-30T16:02:17;9.57;;;2.03;;
15946;SDS011;8072;52.554;7.966;2023-03-30T16:05:05;9.77;;;2.07;;
15946;SDS011;8072;52.554;7.966;2023-03-30T16:07:34;11.50;;;2.20;;
15946;SDS011;8072;52.554;7.966;2023-03-30T16:10:02;12.67;;;2.20;;
15946;SDS011;8072;52.554;7.966;2023-03-30T16:12:28;16.10;;;2.37;;
15946;SDS011;8072;52.554;7.966;2023-03-30T16:14:55;10.00;;;2.33;;
15946;SDS011;8072;52.554;7.966;2023-03-30T16:17:22;6.80;;;2.33;;
15946;SDS011;8072;52.554;7.966;2023-03-30T16:19:48;11.27;;;2.17;;
15946;SDS011;8072;52.554;7.966;2023-03-30T16:22:14;8.57;;;2.00;;
15946;SDS011;8072;52.554;7.966;2023-03-30T16:24:40;7.03;;;1.87;;
15946;SDS011;8072;52.554;7.966;2023-03-30T16:27:08;7.23;;;1.70;;
15946;SDS011;8072;52.554;7.966;2023-03-30T16:29:36;9.33;;;1.90;;
15946;SDS011;8072;52.554;7.966;2023-03-30T16:32:02;10.70;;;1.63;;
15946;SDS011;8072;52.554;7.966;2023-03-30T16:34:28;9.60;;;2.13;;
15946;SDS011;8072;52.554;7.966;2023-03-30T16:36:54;10.17;;;1.80;;
15946;SDS011;8072;52.554;7.966;2023-03-30T16:39:21;11.83;;;2.57;;
15946;SDS011;8072;52.554;7.966;2023-03-30T16:41:52;13.23;;;2.13;;
15946;SDS011;8072;52.554;7.966;2023-03-30T16:44:21;8.87;;;1.97;;
15946;SDS011;8072;52.554;7.966;2023-03-30T16:46:48;8.30;;;1.83;;
15946;SDS011;8072;52.554;7.966;2023-03-30T16:49:17;12.67;;;2.70;;
15946;SDS011;8072;52.554;7.966;2023-03-30T16:51:45;8.87;;;1.90;;
15946;SDS011;8072;52.554;7.966;2023-03-30T16:54:12;8.67;;;1.67;;
15946;SDS011;8072;52.554;7.966;2023-03-30T16:56:38;11.83;;;2.20;;
15946;SDS011;8072;52.554;7.966;2023-03-30T16:59:04;8.17;;;1.90;;
15946;SDS011;8072;52.554;7.966;2023-03-30T17:01:36;11.83;;;2.07;;
15946;SDS011;8072;52.554;7.966;2023-03-30T17:04:01;12.00;;;2.20;;
15946;SDS011;8072;52.554;7.966;2023-03-30T17:06:33;10.63;;;2.43;;
15946;SDS011;8072;52.554;7.966;2023-03-30T17:08:59;10.37;;;2.40;;
15946;SDS011;8072;52.554;7.966;2023-03-30T17:11:25;13.43;;;2.33;;
15946;SDS011;8072;52.554;7.966;2023-03-30T17:13:51;15.80;;;2.90;;
15946;SDS011;8072;52.554;7.966;2023-03-30T17:16:16;12.23;;;2.23;;
15946;SDS011;8072;52.554;7.966;2023-03-30T17:18:42;14.70;;;2.20;;
15946;SDS011;8072;52.554;7.966;2023-03-30T17:21:08;14.97;;;2.30;;
15946;SDS011;8072;52.554;7.966;2023-03-30T17:23:40;14.87;;;2.47;;
15946;SDS011;8072;52.554;7.966;2023-03-30T17:26:08;14.73;;;2.37;;
15946;SDS011;8072;52.554;7.966;2023-03-30T17:28:36;11.60;;;2.63;;
15946;SDS011;8072;52.554;7.966;2023-03-30T17:31:03;14.73;;;2.60;;
15946;SDS011;8072;52.554;7.966;2023-03-30T17:33:32;13.27;;;2.50;;
15946;SDS011;8072;52.554;7.966;2023-03-30T17:36:18;12.93;;;2.50;;
15946;SDS011;8072;52.554;7.966;2023-03-30T17:38:46;12.67;;;2.17;;
15946;SDS011;8072;52.554;7.966;2023-03-30T17:41:13;17.80;;;2.83;;
15946;SDS011;8072;52.554;7.966;2023-03-30T17:43:40;11.63;;;2.07;;
15946;SDS011;8072;52.554;7.966;2023-03-30T17:46:08;12.17;;;2.70;;
15946;SDS011;8072;52.554;7.966;2023-03-30T17:48:35;15.57;;;2.90;;
15946;SDS011;8072;52.554;7.966;2023-03-30T17:51:01;12.47;;;2.10;;